aviador You're here:

LFMT Decoded Metar

MONTPELLIER in FRANCE
Report Time2017-08-21 23:30:00
UTC Time2017-08-21 23:56:17
Flight Rules vfr VFR
Wind280° at 01 kt
W.Decomp.*RWY 30: 0.9 kt HW 0.3 kt LCW
W.Rank280° ranks 6
Current wind is below 280° avg. (9.4)
Visibility9999 m
Phenomena:N/A
Clouds:N/A
Expected CloudBase > 4,000 ft AGL from Temp-Dew spread
CeilingNone
Temp20°C (ISA +5)
Dew Point10°C (53% RH)
AAT19.7°C
QNH1018 hPa
Density Alt607 ft
Elevation20 ft
Report Wrong Elevation
Raw Report
LFMT 212330Z AUTO 28001KT CAVOK 20/10 Q1018 NOSIG=

Extra information for LFMT:More info

Metar Taf Metar & Taf Last 4 Metars F.Rules Stats Wind Profile Meteogram Temp Stats Airport Information Weather charts Add Link Nearby VenuesMetar ALERT Operation Metar Decoded Social comments